KIRS

Kirsch Municipal Airport

Sturgis, Michigan, USA
METAR KIRS 170755Z AUTO 09006KT 4SM BR SCT003 M03/M04 A3009 RMK AO2 T10351045
Observed Flight Rules
Dec-17 @ 07:55 UTC (22 minutes ago) Marginal Visual Flight Rules
Wind Visibility Clouds Conditions
90° at 6 knots 4 miles
  • Scattered at 300' AGL
  • Mist
Temperatures Readings
Current -4°C / 25°F
Dewpoint -5°C / 23°F
Humidity 93%
Altimeter 30.09" Hg
Pressure 1019 hPa
Elevation 282
METAR KIRS 170755Z AUTO 09006KT 4SM BR SCT003 M03/M04 A3009 RMK AO2 T10351045
Observed Flight Rules
Dec-17 @ 07:55 UTC
(22 minutes ago)
MVFR
Wind Visibility
90° at 6 knots 4 miles
Clouds
  • Scattered at 300' AGL
Conditions
  • Mist
Temperature Dewpoint
-4°C / 25°F -5°C / 23°F
Humidity Altimeter Pressure
93% 30.09" Hg 1019 hPa